sensor_id;sensor_type;location;lat;lon;timestamp;temperature;humidity
81951;DHT22;71452;52.562;5.642;2024-02-21T00:01:18;10.50;74.30
81951;DHT22;71452;52.562;5.642;2024-02-21T00:03:47;10.50;74.30
81951;DHT22;71452;52.562;5.642;2024-02-21T00:06:16;10.50;74.20
81951;DHT22;71452;52.562;5.642;2024-02-21T00:08:45;10.50;74.30
81951;DHT22;71452;52.562;5.642;2024-02-21T00:11:14;10.50;74.40
81951;DHT22;71452;52.562;5.642;2024-02-21T00:13:43;10.50;74.50
81951;DHT22;71452;52.562;5.642;2024-02-21T00:16:12;10.50;74.40
81951;DHT22;71452;52.562;5.642;2024-02-21T00:18:44;10.50;74.50
81951;DHT22;71452;52.562;5.642;2024-02-21T00:21:14;10.50;74.60
81951;DHT22;71452;52.562;5.642;2024-02-21T00:23:44;10.50;74.60
81951;DHT22;71452;52.562;5.642;2024-02-21T00:26:16;10.50;74.70
81951;DHT22;71452;52.562;5.642;2024-02-21T00:28:45;10.50;74.70
81951;DHT22;71452;52.562;5.642;2024-02-21T00:31:15;10.50;74.70
81951;DHT22;71452;52.562;5.642;2024-02-21T00:33:46;10.50;74.90
81951;DHT22;71452;52.562;5.642;2024-02-21T00:36:16;10.50;74.90
81951;DHT22;71452;52.562;5.642;2024-02-21T00:38:45;10.50;75.00
81951;DHT22;71452;52.562;5.642;2024-02-21T00:41:14;10.40;75.10
81951;DHT22;71452;52.562;5.642;2024-02-21T00:43:44;10.50;75.30
81951;DHT22;71452;52.562;5.642;2024-02-21T00:46:14;10.50;75.20
81951;DHT22;71452;52.562;5.642;2024-02-21T00:48:46;10.50;75.10
81951;DHT22;71452;52.562;5.642;2024-02-21T00:51:16;10.50;75.30
81951;DHT22;71452;52.562;5.642;2024-02-21T00:53:45;10.50;75.30
81951;DHT22;71452;52.562;5.642;2024-02-21T00:56:14;10.40;75.40
81951;DHT22;71452;52.562;5.642;2024-02-21T00:58:43;10.50;75.40
81951;DHT22;71452;52.562;5.642;2024-02-21T01:01:12;10.50;75.40
81951;DHT22;71452;52.562;5.642;2024-02-21T01:03:42;10.50;75.30
81951;DHT22;71452;52.562;5.642;2024-02-21T01:06:13;10.60;75.20
81951;DHT22;71452;52.562;5.642;2024-02-21T01:08:42;10.60;75.10
81951;DHT22;71452;52.562;5.642;2024-02-21T01:11:12;10.60;75.10
81951;DHT22;71452;52.562;5.642;2024-02-21T01:13:41;10.50;75.20
81951;DHT22;71452;52.562;5.642;2024-02-21T01:16:10;10.60;75.20
81951;DHT22;71452;52.562;5.642;2024-02-21T01:18:39;10.50;75.20
81951;DHT22;71452;52.562;5.642;2024-02-21T01:21:09;10.50;75.30
81951;DHT22;71452;52.562;5.642;2024-02-21T01:23:40;10.50;75.30
81951;DHT22;71452;52.562;5.642;2024-02-21T01:26:09;10.50;75.30
81951;DHT22;71452;52.562;5.642;2024-02-21T01:28:40;10.50;75.40
81951;DHT22;71452;52.562;5.642;2024-02-21T01:31:09;10.50;75.30
81951;DHT22;71452;52.562;5.642;2024-02-21T01:33:39;10.50;75.40
81951;DHT22;71452;52.562;5.642;2024-02-21T01:36:08;10.50;75.40
81951;DHT22;71452;52.562;5.642;2024-02-21T01:38:40;10.50;75.40
81951;DHT22;71452;52.562;5.642;2024-02-21T01:41:09;10.60;75.20
81951;DHT22;71452;52.562;5.642;2024-02-21T01:43:39;10.60;75.30
81951;DHT22;71452;52.562;5.642;2024-02-21T01:46:08;10.60;75.10
81951;DHT22;71452;52.562;5.642;2024-02-21T01:48:37;10.50;75.30
81951;DHT22;71452;52.562;5.642;2024-02-21T01:51:06;10.50;75.30
81951;DHT22;71452;52.562;5.642;2024-02-21T01:53:42;10.60;75.10
81951;DHT22;71452;52.562;5.642;2024-02-21T01:56:12;10.60;75.00
81951;DHT22;71452;52.562;5.642;2024-02-21T01:58:42;10.60;75.00
81951;DHT22;71452;52.562;5.642;2024-02-21T02:01:13;10.50;75.20
81951;DHT22;71452;52.562;5.642;2024-02-21T02:03:42;10.50;75.30
81951;DHT22;71452;52.562;5.642;2024-02-21T02:06:14;10.50;75.20
81951;DHT22;71452;52.562;5.642;2024-02-21T02:08:46;10.60;75.00
81951;DHT22;71452;52.562;5.642;2024-02-21T02:11:15;10.60;75.00
81951;DHT22;71452;52.562;5.642;2024-02-21T02:13:45;10.60;75.00
81951;DHT22;71452;52.562;5.642;2024-02-21T02:16:14;10.60;74.90
81951;DHT22;71452;52.562;5.642;2024-02-21T02:18:43;10.60;74.80
81951;DHT22;71452;52.562;5.642;2024-02-21T02:21:23;10.60;74.70
81951;DHT22;71452;52.562;5.642;2024-02-21T02:23:59;10.60;74.90
81951;DHT22;71452;52.562;5.642;2024-02-21T02:26:28;10.60;75.00
81951;DHT22;71452;52.562;5.642;2024-02-21T02:28:57;10.60;75.10
81951;DHT22;71452;52.562;5.642;2024-02-21T02:31:26;10.60;75.10
81951;DHT22;71452;52.562;5.642;2024-02-21T02:33:56;10.60;75.10
81951;DHT22;71452;52.562;5.642;2024-02-21T02:36:25;10.60;75.10
81951;DHT22;71452;52.562;5.642;2024-02-21T02:38:54;10.60;75.20
81951;DHT22;71452;52.562;5.642;2024-02-21T02:41:26;10.60;75.20
81951;DHT22;71452;52.562;5.642;2024-02-21T02:43:55;10.60;75.30
81951;DHT22;71452;52.562;5.642;2024-02-21T02:46:24;10.60;75.40
81951;DHT22;71452;52.562;5.642;2024-02-21T02:48:53;10.60;75.50
81951;DHT22;71452;52.562;5.642;2024-02-21T02:51:22;10.60;75.40
81951;DHT22;71452;52.562;5.642;2024-02-21T02:53:51;10.50;75.70
81951;DHT22;71452;52.562;5.642;2024-02-21T02:56:20;10.50;75.80
81951;DHT22;71452;52.562;5.642;2024-02-21T02:58:52;10.50;75.90
81951;DHT22;71452;52.562;5.642;2024-02-21T03:01:21;10.50;76.10
81951;DHT22;71452;52.562;5.642;2024-02-21T03:03:50;10.50;76.10
81951;DHT22;71452;52.562;5.642;2024-02-21T03:06:19;10.50;76.20
81951;DHT22;71452;52.562;5.642;2024-02-21T03:08:48;10.50;76.40
81951;DHT22;71452;52.562;5.642;2024-02-21T03:11:20;10.40;76.70
81951;DHT22;71452;52.562;5.642;2024-02-21T03:13:57;10.40;76.60
81951;DHT22;71452;52.562;5.642;2024-02-21T03:16:27;10.40;76.80
81951;DHT22;71452;52.562;5.642;2024-02-21T03:18:56;10.40;77.00
81951;DHT22;71452;52.562;5.642;2024-02-21T03:21:25;10.30;77.20
81951;DHT22;71452;52.562;5.642;2024-02-21T03:23:54;10.30;77.20
81951;DHT22;71452;52.562;5.642;2024-02-21T03:26:23;10.30;77.20
81951;DHT22;71452;52.562;5.642;2024-02-21T03:28:52;10.30;77.10
81951;DHT22;71452;52.562;5.642;2024-02-21T03:31:24;10.30;77.20
81951;DHT22;71452;52.562;5.642;2024-02-21T03:33:53;10.30;77.30
81951;DHT22;71452;52.562;5.642;2024-02-21T03:36:23;10.30;77.20
81951;DHT22;71452;52.562;5.642;2024-02-21T03:38:52;10.30;77.20
81951;DHT22;71452;52.562;5.642;2024-02-21T03:41:21;10.20;77.30
81951;DHT22;71452;52.562;5.642;2024-02-21T03:43:50;10.20;77.40
81951;DHT22;71452;52.562;5.642;2024-02-21T03:46:19;10.30;77.30
81951;DHT22;71452;52.562;5.642;2024-02-21T03:48:51;10.30;77.30
81951;DHT22;71452;52.562;5.642;2024-02-21T03:51:20;10.30;77.40
81951;DHT22;71452;52.562;5.642;2024-02-21T03:53:49;10.30;77.30
81951;DHT22;71452;52.562;5.642;2024-02-21T03:56:18;10.30;77.20
81951;DHT22;71452;52.562;5.642;2024-02-21T03:58:48;10.30;77.30
81951;DHT22;71452;52.562;5.642;2024-02-21T04:01:17;10.30;77.30
81951;DHT22;71452;52.562;5.642;2024-02-21T04:03:46;10.30;77.50
81951;DHT22;71452;52.562;5.642;2024-02-21T04:06:18;10.30;77.50
81951;DHT22;71452;52.562;5.642;2024-02-21T04:08:47;10.30;77.50
81951;DHT22;71452;52.562;5.642;2024-02-21T04:11:16;10.30;77.40
81951;DHT22;71452;52.562;5.642;2024-02-21T04:13:45;10.30;77.20
81951;DHT22;71452;52.562;5.642;2024-02-21T04:16:16;10.40;77.20
81951;DHT22;71452;52.562;5.642;2024-02-21T04:18:45;10.40;77.10
81951;DHT22;71452;52.562;5.642;2024-02-21T04:21:17;10.40;77.20
81951;DHT22;71452;52.562;5.642;2024-02-21T04:23:46;10.40;77.10
81951;DHT22;71452;52.562;5.642;2024-02-21T04:26:15;10.40;77.00
81951;DHT22;71452;52.562;5.642;2024-02-21T04:28:45;10.40;76.90
81951;DHT22;71452;52.562;5.642;2024-02-21T04:31:14;10.40;77.00
81951;DHT22;71452;52.562;5.642;2024-02-21T04:33:43;10.50;77.00
81951;DHT22;71452;52.562;5.642;2024-02-21T04:36:12;10.50;76.90
81951;DHT22;71452;52.562;5.642;2024-02-21T04:38:44;10.50;76.70
81951;DHT22;71452;52.562;5.642;2024-02-21T04:41:13;10.50;76.60
81951;DHT22;71452;52.562;5.642;2024-02-21T04:43:42;10.50;76.60
81951;DHT22;71452;52.562;5.642;2024-02-21T04:46:12;10.50;76.60
81951;DHT22;71452;52.562;5.642;2024-02-21T04:48:41;10.50;76.50
81951;DHT22;71452;52.562;5.642;2024-02-21T04:51:11;10.50;76.50
81951;DHT22;71452;52.562;5.642;2024-02-21T04:53:40;10.50;76.40
81951;DHT22;71452;52.562;5.642;2024-02-21T04:56:13;10.40;76.50
81951;DHT22;71452;52.562;5.642;2024-02-21T04:58:42;10.50;76.50
81951;DHT22;71452;52.562;5.642;2024-02-21T05:01:11;10.50;76.50
81951;DHT22;71452;52.562;5.642;2024-02-21T05:03:40;10.40;76.50
81951;DHT22;71452;52.562;5.642;2024-02-21T05:06:09;10.40;76.50
81951;DHT22;71452;52.562;5.642;2024-02-21T05:08:38;10.50;76.40
81951;DHT22;71452;52.562;5.642;2024-02-21T05:11:07;10.50;76.30
81951;DHT22;71452;52.562;5.642;2024-02-21T05:13:39;10.50;76.40
81951;DHT22;71452;52.562;5.642;2024-02-21T05:16:08;10.50;76.40
81951;DHT22;71452;52.562;5.642;2024-02-21T05:18:37;10.50;76.40
81951;DHT22;71452;52.562;5.642;2024-02-21T05:21:06;10.60;76.20
81951;DHT22;71452;52.562;5.642;2024-02-21T05:23:36;10.50;76.20
81951;DHT22;71452;52.562;5.642;2024-02-21T05:26:05;10.50;76.30
81951;DHT22;71452;52.562;5.642;2024-02-21T05:28:35;10.50;76.30
81951;DHT22;71452;52.562;5.642;2024-02-21T05:31:06;10.50;76.20
81951;DHT22;71452;52.562;5.642;2024-02-21T05:33:35;10.50;76.10
81951;DHT22;71452;52.562;5.642;2024-02-21T05:36:06;10.50;76.10
81951;DHT22;71452;52.562;5.642;2024-02-21T05:38:35;10.50;76.10
81951;DHT22;71452;52.562;5.642;2024-02-21T05:41:04;10.50;76.00
81951;DHT22;71452;52.562;5.642;2024-02-21T05:43:33;10.50;76.10
81951;DHT22;71452;52.562;5.642;2024-02-21T05:46:05;10.50;76.10
81951;DHT22;71452;52.562;5.642;2024-02-21T05:48:34;10.50;76.00
81951;DHT22;71452;52.562;5.642;2024-02-21T05:51:04;10.50;76.10
81951;DHT22;71452;52.562;5.642;2024-02-21T05:53:33;10.50;76.10
81951;DHT22;71452;52.562;5.642;2024-02-21T05:56:10;10.50;76.10
81951;DHT22;71452;52.562;5.642;2024-02-21T05:58:39;10.50;76.00
81951;DHT22;71452;52.562;5.642;2024-02-21T06:01:12;10.50;76.10
81951;DHT22;71452;52.562;5.642;2024-02-21T06:03:41;10.50;75.90
81951;DHT22;71452;52.562;5.642;2024-02-21T06:06:10;10.50;75.90
81951;DHT22;71452;52.562;5.642;2024-02-21T06:08:40;10.50;76.00
81951;DHT22;71452;52.562;5.642;2024-02-21T06:11:09;10.50;76.10
81951;DHT22;71452;52.562;5.642;2024-02-21T06:13:38;10.50;76.00
81951;DHT22;71452;52.562;5.642;2024-02-21T06:16:10;10.50;75.90
81951;DHT22;71452;52.562;5.642;2024-02-21T06:18:40;10.40;75.90
81951;DHT22;71452;52.562;5.642;2024-02-21T06:21:09;10.40;76.00
81951;DHT22;71452;52.562;5.642;2024-02-21T06:23:38;10.40;75.90
81951;DHT22;71452;52.562;5.642;2024-02-21T06:26:07;10.40;76.00
81951;DHT22;71452;52.562;5.642;2024-02-21T06:28:37;10.40;75.90
81951;DHT22;71452;52.562;5.642;2024-02-21T06:31:06;10.40;76.00
81951;DHT22;71452;52.562;5.642;2024-02-21T06:33:38;10.30;76.00
81951;DHT22;71452;52.562;5.642;2024-02-21T06:36:08;10.30;75.80
81951;DHT22;71452;52.562;5.642;2024-02-21T06:38:37;10.30;76.00
81951;DHT22;71452;52.562;5.642;2024-02-21T06:41:06;10.30;76.00
81951;DHT22;71452;52.562;5.642;2024-02-21T06:43:44;10.30;75.70
81951;DHT22;71452;52.562;5.642;2024-02-21T06:46:23;10.30;75.60
81951;DHT22;71452;52.562;5.642;2024-02-21T06:48:54;10.30;75.80
81951;DHT22;71452;52.562;5.642;2024-02-21T06:51:24;10.30;75.70
81951;DHT22;71452;52.562;5.642;2024-02-21T06:53:53;10.20;75.80
81951;DHT22;71452;52.562;5.642;2024-02-21T06:56:24;10.20;75.90
81951;DHT22;71452;52.562;5.642;2024-02-21T06:58:55;10.20;75.90
81951;DHT22;71452;52.562;5.642;2024-02-21T07:01:24;10.20;75.90
81951;DHT22;71452;52.562;5.642;2024-02-21T07:03:56;10.20;76.00
81951;DHT22;71452;52.562;5.642;2024-02-21T07:06:25;10.20;76.10
81951;DHT22;71452;52.562;5.642;2024-02-21T07:08:54;10.20;76.10
81951;DHT22;71452;52.562;5.642;2024-02-21T07:11:24;10.20;76.10
81951;DHT22;71452;52.562;5.642;2024-02-21T07:13:53;10.20;76.10
81951;DHT22;71452;52.562;5.642;2024-02-21T07:16:22;10.20;76.00
81951;DHT22;71452;52.562;5.642;2024-02-21T07:18:52;10.20;75.90
81951;DHT22;71452;52.562;5.642;2024-02-21T07:21:24;10.20;76.00
81951;DHT22;71452;52.562;5.642;2024-02-21T07:23:53;10.20;75.90
81951;DHT22;71452;52.562;5.642;2024-02-21T07:26:22;10.30;75.90
81951;DHT22;71452;52.562;5.642;2024-02-21T07:28:52;10.30;75.80
81951;DHT22;71452;52.562;5.642;2024-02-21T07:31:21;10.30;75.80
81951;DHT22;71452;52.562;5.642;2024-02-21T07:33:50;10.30;75.90
81951;DHT22;71452;52.562;5.642;2024-02-21T07:36:28;10.30;75.90
81951;DHT22;71452;52.562;5.642;2024-02-21T07:38:58;10.30;75.90
81951;DHT22;71452;52.562;5.642;2024-02-21T07:41:27;10.30;75.90
81951;DHT22;71452;52.562;5.642;2024-02-21T07:43:57;10.30;75.80
81951;DHT22;71452;52.562;5.642;2024-02-21T07:46:26;10.30;75.70
81951;DHT22;71452;52.562;5.642;2024-02-21T07:48:55;10.30;75.60
81951;DHT22;71452;52.562;5.642;2024-02-21T07:51:30;10.30;75.70
81951;DHT22;71452;52.562;5.642;2024-02-21T07:53:59;10.30;75.70
81951;DHT22;71452;52.562;5.642;2024-02-21T07:56:30;10.30;75.70
81951;DHT22;71452;52.562;5.642;2024-02-21T07:58:59;10.40;75.70
81951;DHT22;71452;52.562;5.642;2024-02-21T08:01:29;10.40;75.60
81951;DHT22;71452;52.562;5.642;2024-02-21T08:03:58;10.30;75.50
81951;DHT22;71452;52.562;5.642;2024-02-21T08:06:31;10.30;75.50
81951;DHT22;71452;52.562;5.642;2024-02-21T08:09:00;10.40;75.60
81951;DHT22;71452;52.562;5.642;2024-02-21T08:11:29;10.40;75.40
81951;DHT22;71452;52.562;5.642;2024-02-21T08:13:59;10.40;75.40
81951;DHT22;71452;52.562;5.642;2024-02-21T08:16:29;10.40;75.50
81951;DHT22;71452;52.562;5.642;2024-02-21T08:18:58;10.40;75.40
81951;DHT22;71452;52.562;5.642;2024-02-21T08:21:31;10.40;75.20
81951;DHT22;71452;52.562;5.642;2024-02-21T08:24:01;10.40;75.20
81951;DHT22;71452;52.562;5.642;2024-02-21T08:26:30;10.40;75.20
81951;DHT22;71452;52.562;5.642;2024-02-21T08:28:59;10.40;75.20
81951;DHT22;71452;52.562;5.642;2024-02-21T08:31:28;10.50;75.10
81951;DHT22;71452;52.562;5.642;2024-02-21T08:33:58;10.50;75.00
81951;DHT22;71452;52.562;5.642;2024-02-21T08:36:32;10.50;75.00
81951;DHT22;71452;52.562;5.642;2024-02-21T08:39:02;10.50;75.00
81951;DHT22;71452;52.562;5.642;2024-02-21T08:41:32;10.50;74.80
81951;DHT22;71452;52.562;5.642;2024-02-21T08:44:01;10.50;74.80
81951;DHT22;71452;52.562;5.642;2024-02-21T08:46:31;10.50;74.80
81951;DHT22;71452;52.562;5.642;2024-02-21T08:49:00;10.50;74.80
81951;DHT22;71452;52.562;5.642;2024-02-21T08:51:32;10.50;74.90
81951;DHT22;71452;52.562;5.642;2024-02-21T08:54:01;10.50;75.00
81951;DHT22;71452;52.562;5.642;2024-02-21T08:56:30;10.50;74.80
81951;DHT22;71452;52.562;5.642;2024-02-21T08:59:00;10.50;74.70
81951;DHT22;71452;52.562;5.642;2024-02-21T09:01:29;10.50;74.70
81951;DHT22;71452;52.562;5.642;2024-02-21T09:04:00;10.50;74.70
81951;DHT22;71452;52.562;5.642;2024-02-21T09:06:32;10.50;74.80
81951;DHT22;71452;52.562;5.642;2024-02-21T09:09:03;10.50;74.70
81951;DHT22;71452;52.562;5.642;2024-02-21T09:11:34;10.50;74.70
81951;DHT22;71452;52.562;5.642;2024-02-21T09:14:03;10.50;74.80
81951;DHT22;71452;52.562;5.642;2024-02-21T09:16:32;10.60;74.60
81951;DHT22;71452;52.562;5.642;2024-02-21T09:19:01;10.60;74.60
81951;DHT22;71452;52.562;5.642;2024-02-21T09:21:33;10.60;74.70
81951;DHT22;71452;52.562;5.642;2024-02-21T09:24:03;10.60;74.80
81951;DHT22;71452;52.562;5.642;2024-02-21T09:26:32;10.70;74.60
81951;DHT22;71452;52.562;5.642;2024-02-21T09:29:01;10.70;74.60
81951;DHT22;71452;52.562;5.642;2024-02-21T09:31:30;10.70;74.50
81951;DHT22;71452;52.562;5.642;2024-02-21T09:33:59;10.70;74.50
81951;DHT22;71452;52.562;5.642;2024-02-21T09:36:28;10.70;74.40
81951;DHT22;71452;52.562;5.642;2024-02-21T09:39:00;10.70;74.50
81951;DHT22;71452;52.562;5.642;2024-02-21T09:41:29;10.70;74.40
81951;DHT22;71452;52.562;5.642;2024-02-21T09:43:59;10.70;74.30
81951;DHT22;71452;52.562;5.642;2024-02-21T09:46:38;10.80;74.30
81951;DHT22;71452;52.562;5.642;2024-02-21T09:49:18;10.70;74.30
81951;DHT22;71452;52.562;5.642;2024-02-21T09:51:51;10.80;74.20
81951;DHT22;71452;52.562;5.642;2024-02-21T09:54:25;10.80;73.90
81951;DHT22;71452;52.562;5.642;2024-02-21T09:56:54;10.80;74.00
81951;DHT22;71452;52.562;5.642;2024-02-21T09:59:25;10.80;73.80
81951;DHT22;71452;52.562;5.642;2024-02-21T10:01:55;10.80;73.90
81951;DHT22;71452;52.562;5.642;2024-02-21T10:04:26;10.80;73.90
81951;DHT22;71452;52.562;5.642;2024-02-21T10:06:55;10.80;73.90
81951;DHT22;71452;52.562;5.642;2024-02-21T10:09:28;10.80;73.70
81951;DHT22;71452;52.562;5.642;2024-02-21T10:12:07;10.80;73.80
81951;DHT22;71452;52.562;5.642;2024-02-21T10:14:37;10.90;73.80
81951;DHT22;71452;52.562;5.642;2024-02-21T10:17:06;10.90;73.80
81951;DHT22;71452;52.562;5.642;2024-02-21T10:19:36;10.90;73.70
81951;DHT22;71452;52.562;5.642;2024-02-21T10:22:07;10.90;73.40
81951;DHT22;71452;52.562;5.642;2024-02-21T10:24:39;10.90;73.40
81951;DHT22;71452;52.562;5.642;2024-02-21T10:27:09;11.00;73.20
81951;DHT22;71452;52.562;5.642;2024-02-21T10:29:40;11.00;73.00
81951;DHT22;71452;52.562;5.642;2024-02-21T10:32:10;11.00;73.00
81951;DHT22;71452;52.562;5.642;2024-02-21T10:34:41;11.00;72.80
81951;DHT22;71452;52.562;5.642;2024-02-21T10:37:12;11.00;72.90
81951;DHT22;71452;52.562;5.642;2024-02-21T10:39:43;11.00;72.90
81951;DHT22;71452;52.562;5.642;2024-02-21T10:42:14;11.00;72.90
81951;DHT22;71452;52.562;5.642;2024-02-21T10:44:46;11.00;72.90
81951;DHT22;71452;52.562;5.642;2024-02-21T10:47:17;11.10;72.60
81951;DHT22;71452;52.562;5.642;2024-02-21T10:49:50;11.10;72.50
81951;DHT22;71452;52.562;5.642;2024-02-21T10:52:34;11.10;72.40
81951;DHT22;71452;52.562;5.642;2024-02-21T10:55:10;11.10;72.20
81951;DHT22;71452;52.562;5.642;2024-02-21T10:57:43;11.10;72.20
81951;DHT22;71452;52.562;5.642;2024-02-21T11:00:15;11.10;72.20
81951;DHT22;71452;52.562;5.642;2024-02-21T11:02:47;11.10;72.00
81951;DHT22;71452;52.562;5.642;2024-02-21T11:05:17;11.10;71.60
81951;DHT22;71452;52.562;5.642;2024-02-21T11:07:47;11.10;71.80
81951;DHT22;71452;52.562;5.642;2024-02-21T11:10:26;11.00;71.70
81951;DHT22;71452;52.562;5.642;2024-02-21T11:13:05;11.00;71.70
81951;DHT22;71452;52.562;5.642;2024-02-21T11:15:35;11.00;71.70
81951;DHT22;71452;52.562;5.642;2024-02-21T11:18:05;11.00;71.90
81951;DHT22;71452;52.562;5.642;2024-02-21T11:20:35;11.00;71.70
81951;DHT22;71452;52.562;5.642;2024-02-21T11:23:04;10.90;71.50
81951;DHT22;71452;52.562;5.642;2024-02-21T11:25:36;10.90;71.50
81951;DHT22;71452;52.562;5.642;2024-02-21T11:28:05;10.90;71.50
81951;DHT22;71452;52.562;5.642;2024-02-21T11:30:37;10.90;71.50
81951;DHT22;71452;52.562;5.642;2024-02-21T11:33:07;10.90;71.30
81951;DHT22;71452;52.562;5.642;2024-02-21T11:35:36;10.90;71.40
81951;DHT22;71452;52.562;5.642;2024-02-21T11:38:10;10.90;71.40
81951;DHT22;71452;52.562;5.642;2024-02-21T11:40:45;10.90;71.50
81951;DHT22;71452;52.562;5.642;2024-02-21T11:43:15;11.00;71.40
81951;DHT22;71452;52.562;5.642;2024-02-21T11:45:44;11.00;71.30
81951;DHT22;71452;52.562;5.642;2024-02-21T11:48:14;11.00;71.20
81951;DHT22;71452;52.562;5.642;2024-02-21T11:50:52;11.00;71.20
81951;DHT22;71452;52.562;5.642;2024-02-21T11:53:22;11.00;71.30
81951;DHT22;71452;52.562;5.642;2024-02-21T11:55:59;11.00;71.20
81951;DHT22;71452;52.562;5.642;2024-02-21T11:58:29;11.00;71.30
81951;DHT22;71452;52.562;5.642;2024-02-21T12:00:58;11.00;71.20
81951;DHT22;71452;52.562;5.642;2024-02-21T12:03:29;11.00;71.20
81951;DHT22;71452;52.562;5.642;2024-02-21T12:06:00;11.00;71.50
81951;DHT22;71452;52.562;5.642;2024-02-21T12:08:41;11.00;71.60
81951;DHT22;71452;52.562;5.642;2024-02-21T12:11:19;11.00;71.80
81951;DHT22;71452;52.562;5.642;2024-02-21T12:13:58;11.10;71.60
81951;DHT22;71452;52.562;5.642;2024-02-21T12:16:30;11.10;71.50
81951;DHT22;71452;52.562;5.642;2024-02-21T12:18:59;11.10;71.60
81951;DHT22;71452;52.562;5.642;2024-02-21T12:21:30;11.10;71.40
81951;DHT22;71452;52.562;5.642;2024-02-21T12:24:12;11.10;70.90
81951;DHT22;71452;52.562;5.642;2024-02-21T12:26:44;11.10;71.10
81951;DHT22;71452;52.562;5.642;2024-02-21T12:29:13;11.10;71.10
81951;DHT22;71452;52.562;5.642;2024-02-21T12:31:42;11.10;71.00
81951;DHT22;71452;52.562;5.642;2024-02-21T12:34:11;11.10;71.20
81951;DHT22;71452;52.562;5.642;2024-02-21T12:36:41;11.10;71.30
81951;DHT22;71452;52.562;5.642;2024-02-21T12:39:13;11.10;71.40
81951;DHT22;71452;52.562;5.642;2024-02-21T12:41:45;11.20;71.50
81951;DHT22;71452;52.562;5.642;2024-02-21T12:44:14;11.30;71.50
81951;DHT22;71452;52.562;5.642;2024-02-21T12:46:44;11.30;71.10
81951;DHT22;71452;52.562;5.642;2024-02-21T12:49:18;11.30;70.60
81951;DHT22;71452;52.562;5.642;2024-02-21T12:51:47;11.30;70.50
81951;DHT22;71452;52.562;5.642;2024-02-21T12:54:16;11.30;70.60
81951;DHT22;71452;52.562;5.642;2024-02-21T12:56:48;11.30;70.70
81951;DHT22;71452;52.562;5.642;2024-02-21T12:59:17;11.40;71.00
81951;DHT22;71452;52.562;5.642;2024-02-21T13:01:47;11.40;71.00
81951;DHT22;71452;52.562;5.642;2024-02-21T13:04:16;11.50;70.70
81951;DHT22;71452;52.562;5.642;2024-02-21T13:06:45;11.50;70.60
81951;DHT22;71452;52.562;5.642;2024-02-21T13:09:15;11.40;70.20
81951;DHT22;71452;52.562;5.642;2024-02-21T13:11:44;11.40;70.20
81951;DHT22;71452;52.562;5.642;2024-02-21T13:14:16;11.40;70.00
81951;DHT22;71452;52.562;5.642;2024-02-21T13:16:45;11.40;70.30
81951;DHT22;71452;52.562;5.642;2024-02-21T13:19:16;11.40;70.20
81951;DHT22;71452;52.562;5.642;2024-02-21T13:21:46;11.40;69.60
81951;DHT22;71452;52.562;5.642;2024-02-21T13:24:16;11.40;69.80
81951;DHT22;71452;52.562;5.642;2024-02-21T13:26:45;11.40;70.10
81951;DHT22;71452;52.562;5.642;2024-02-21T13:29:17;11.40;70.20
81951;DHT22;71452;52.562;5.642;2024-02-21T13:31:46;11.40;70.20
81951;DHT22;71452;52.562;5.642;2024-02-21T13:34:16;11.40;70.30
81951;DHT22;71452;52.562;5.642;2024-02-21T13:36:46;11.40;70.20
81951;DHT22;71452;52.562;5.642;2024-02-21T13:39:15;11.40;70.10
81951;DHT22;71452;52.562;5.642;2024-02-21T13:41:45;11.40;70.20
81951;DHT22;71452;52.562;5.642;2024-02-21T13:44:17;11.40;70.10
81951;DHT22;71452;52.562;5.642;2024-02-21T13:46:46;11.40;70.20
81951;DHT22;71452;52.562;5.642;2024-02-21T13:49:15;11.40;70.40
81951;DHT22;71452;52.562;5.642;2024-02-21T13:51:44;11.40;70.40
81951;DHT22;71452;52.562;5.642;2024-02-21T13:54:14;11.40;70.40
81951;DHT22;71452;52.562;5.642;2024-02-21T13:56:45;11.40;70.30
81951;DHT22;71452;52.562;5.642;2024-02-21T13:59:17;11.40;70.20
81951;DHT22;71452;52.562;5.642;2024-02-21T14:01:46;11.40;70.10
81951;DHT22;71452;52.562;5.642;2024-02-21T14:04:15;11.40;70.20
81951;DHT22;71452;52.562;5.642;2024-02-21T14:06:44;11.40;70.00
81951;DHT22;71452;52.562;5.642;2024-02-21T14:09:14;11.40;70.20
81951;DHT22;71452;52.562;5.642;2024-02-21T14:11:43;11.30;70.20
81951;DHT22;71452;52.562;5.642;2024-02-21T14:14:13;11.30;70.20
81951;DHT22;71452;52.562;5.642;2024-02-21T14:16:45;11.30;70.20
81951;DHT22;71452;52.562;5.642;2024-02-21T14:19:15;11.20;70.30
81951;DHT22;71452;52.562;5.642;2024-02-21T14:21:45;11.20;70.60
81951;DHT22;71452;52.562;5.642;2024-02-21T14:24:14;11.20;70.70
81951;DHT22;71452;52.562;5.642;2024-02-21T14:26:43;11.20;70.70
81951;DHT22;71452;52.562;5.642;2024-02-21T14:29:12;11.20;70.70
81951;DHT22;71452;52.562;5.642;2024-02-21T14:31:41;11.20;70.90
81951;DHT22;71452;52.562;5.642;2024-02-21T14:34:13;11.20;71.10
81951;DHT22;71452;52.562;5.642;2024-02-21T14:36:42;11.20;71.10
81951;DHT22;71452;52.562;5.642;2024-02-21T14:39:11;11.30;70.80
81951;DHT22;71452;52.562;5.642;2024-02-21T14:41:41;11.20;70.80
81951;DHT22;71452;52.562;5.642;2024-02-21T14:44:10;11.20;70.70
81951;DHT22;71452;52.562;5.642;2024-02-21T14:46:40;11.20;70.90
81951;DHT22;71452;52.562;5.642;2024-02-21T14:49:13;11.30;71.00
81951;DHT22;71452;52.562;5.642;2024-02-21T14:51:42;11.20;71.00
81951;DHT22;71452;52.562;5.642;2024-02-21T14:54:11;11.20;71.00
81951;DHT22;71452;52.562;5.642;2024-02-21T14:56:40;11.30;70.80
81951;DHT22;71452;52.562;5.642;2024-02-21T14:59:10;11.30;70.80
81951;DHT22;71452;52.562;5.642;2024-02-21T15:01:39;11.20;70.90
81951;DHT22;71452;52.562;5.642;2024-02-21T15:04:08;11.20;70.90
81951;DHT22;71452;52.562;5.642;2024-02-21T15:06:40;11.30;71.00
81951;DHT22;71452;52.562;5.642;2024-02-21T15:09:11;11.20;71.10
81951;DHT22;71452;52.562;5.642;2024-02-21T15:11:40;11.30;71.00
81951;DHT22;71452;52.562;5.642;2024-02-21T15:14:09;11.30;70.90
81951;DHT22;71452;52.562;5.642;2024-02-21T15:16:38;11.30;70.90
81951;DHT22;71452;52.562;5.642;2024-02-21T15:19:07;11.30;70.90
81951;DHT22;71452;52.562;5.642;2024-02-21T15:21:39;11.30;71.00
81951;DHT22;71452;52.562;5.642;2024-02-21T15:24:08;11.30;71.20
81951;DHT22;71452;52.562;5.642;2024-02-21T15:26:38;11.20;71.30
81951;DHT22;71452;52.562;5.642;2024-02-21T15:29:07;11.30;71.50
81951;DHT22;71452;52.562;5.642;2024-02-21T15:31:36;11.20;71.60
81951;DHT22;71452;52.562;5.642;2024-02-21T15:34:10;11.10;71.60
81951;DHT22;71452;52.562;5.642;2024-02-21T15:36:41;11.10;71.70
81951;DHT22;71452;52.562;5.642;2024-02-21T15:39:11;11.10;71.80
81951;DHT22;71452;52.562;5.642;2024-02-21T15:41:40;11.10;71.80
81951;DHT22;71452;52.562;5.642;2024-02-21T15:44:09;11.10;71.60
81951;DHT22;71452;52.562;5.642;2024-02-21T15:46:38;11.10;71.80
81951;DHT22;71452;52.562;5.642;2024-02-21T15:49:08;11.00;72.10